sensor_id;sensor_type;location;lat;lon;timestamp;P1;durP1;ratioP1;P2;durP2;ratioP2
77322;SDS011;66384;51.052;9.850;2024-01-10T00:02:14;26.60;;;7.80;;
77322;SDS011;66384;51.052;9.850;2024-01-10T00:04:51;20.00;;;7.30;;
77322;SDS011;66384;51.052;9.850;2024-01-10T00:07:27;22.40;;;7.30;;
77322;SDS011;66384;51.052;9.850;2024-01-10T00:10:04;21.30;;;7.60;;
77322;SDS011;66384;51.052;9.850;2024-01-10T00:12:41;22.70;;;7.50;;
77322;SDS011;66384;51.052;9.850;2024-01-10T00:15:17;20.90;;;7.30;;
77322;SDS011;66384;51.052;9.850;2024-01-10T00:17:53;18.60;;;7.50;;
77322;SDS011;66384;51.052;9.850;2024-01-10T00:20:30;20.60;;;8.30;;
77322;SDS011;66384;51.052;9.850;2024-01-10T00:23:06;22.10;;;8.30;;
77322;SDS011;66384;51.052;9.850;2024-01-10T00:25:43;23.50;;;8.00;;
77322;SDS011;66384;51.052;9.850;2024-01-10T00:28:19;21.90;;;6.90;;
77322;SDS011;66384;51.052;9.850;2024-01-10T00:30:55;21.70;;;8.00;;
77322;SDS011;66384;51.052;9.850;2024-01-10T00:33:31;14.50;;;5.90;;
77322;SDS011;66384;51.052;9.850;2024-01-10T00:36:08;19.60;;;6.80;;
77322;SDS011;66384;51.052;9.850;2024-01-10T00:38:44;17.20;;;6.50;;
77322;SDS011;66384;51.052;9.850;2024-01-10T00:41:21;21.80;;;7.40;;
77322;SDS011;66384;51.052;9.850;2024-01-10T00:43:57;21.30;;;7.40;;
77322;SDS011;66384;51.052;9.850;2024-01-10T00:46:34;26.40;;;8.70;;
77322;SDS011;66384;51.052;9.850;2024-01-10T00:49:10;25.30;;;8.60;;
77322;SDS011;66384;51.052;9.850;2024-01-10T00:51:46;27.00;;;9.50;;
77322;SDS011;66384;51.052;9.850;2024-01-10T00:54:23;17.70;;;6.70;;
77322;SDS011;66384;51.052;9.850;2024-01-10T00:56:59;28.20;;;8.80;;
77322;SDS011;66384;51.052;9.850;2024-01-10T00:59:36;24.80;;;8.60;;
77322;SDS011;66384;51.052;9.850;2024-01-10T01:02:12;21.20;;;7.60;;
77322;SDS011;66384;51.052;9.850;2024-01-10T01:04:49;23.50;;;6.90;;
77322;SDS011;66384;51.052;9.850;2024-01-10T01:07:25;20.80;;;8.40;;
77322;SDS011;66384;51.052;9.850;2024-01-10T01:10:02;22.00;;;8.30;;
77322;SDS011;66384;51.052;9.850;2024-01-10T01:12:39;22.50;;;8.10;;
77322;SDS011;66384;51.052;9.850;2024-01-10T01:15:15;29.20;;;8.70;;
77322;SDS011;66384;51.052;9.850;2024-01-10T01:17:52;24.30;;;8.80;;
77322;SDS011;66384;51.052;9.850;2024-01-10T01:20:28;28.40;;;8.90;;
77322;SDS011;66384;51.052;9.850;2024-01-10T01:23:05;24.70;;;8.90;;
77322;SDS011;66384;51.052;9.850;2024-01-10T01:25:42;25.40;;;8.80;;
77322;SDS011;66384;51.052;9.850;2024-01-10T01:28:18;23.50;;;9.00;;
77322;SDS011;66384;51.052;9.850;2024-01-10T01:30:54;30.20;;;8.90;;
77322;SDS011;66384;51.052;9.850;2024-01-10T01:33:31;28.10;;;9.40;;
77322;SDS011;66384;51.052;9.850;2024-01-10T01:36:09;21.00;;;7.20;;
77322;SDS011;66384;51.052;9.850;2024-01-10T01:38:45;21.80;;;7.80;;
77322;SDS011;66384;51.052;9.850;2024-01-10T01:41:22;16.00;;;6.00;;
77322;SDS011;66384;51.052;9.850;2024-01-10T01:43:58;20.60;;;7.30;;
77322;SDS011;66384;51.052;9.850;2024-01-10T01:46:34;28.10;;;8.10;;
77322;SDS011;66384;51.052;9.850;2024-01-10T01:49:12;22.00;;;8.80;;
77322;SDS011;66384;51.052;9.850;2024-01-10T01:51:48;27.80;;;8.80;;
77322;SDS011;66384;51.052;9.850;2024-01-10T01:54:26;24.90;;;8.50;;
77322;SDS011;66384;51.052;9.850;2024-01-10T01:57:05;22.20;;;9.40;;
77322;SDS011;66384;51.052;9.850;2024-01-10T01:59:41;30.00;;;11.10;;
77322;SDS011;66384;51.052;9.850;2024-01-10T02:02:18;20.20;;;7.50;;
77322;SDS011;66384;51.052;9.850;2024-01-10T02:04:55;22.20;;;8.00;;
77322;SDS011;66384;51.052;9.850;2024-01-10T02:07:32;26.40;;;9.80;;
77322;SDS011;66384;51.052;9.850;2024-01-10T02:10:09;36.40;;;13.40;;
77322;SDS011;66384;51.052;9.850;2024-01-10T02:12:45;27.40;;;9.50;;
77322;SDS011;66384;51.052;9.850;2024-01-10T02:15:22;25.40;;;9.80;;
77322;SDS011;66384;51.052;9.850;2024-01-10T02:17:59;22.20;;;8.10;;
77322;SDS011;66384;51.052;9.850;2024-01-10T02:20:36;23.60;;;7.70;;
77322;SDS011;66384;51.052;9.850;2024-01-10T02:23:15;24.50;;;9.20;;
77322;SDS011;66384;51.052;9.850;2024-01-10T02:25:52;20.70;;;8.10;;
77322;SDS011;66384;51.052;9.850;2024-01-10T02:28:29;28.10;;;8.00;;
77322;SDS011;66384;51.052;9.850;2024-01-10T02:31:05;24.30;;;8.10;;
77322;SDS011;66384;51.052;9.850;2024-01-10T02:33:42;27.80;;;8.10;;
77322;SDS011;66384;51.052;9.850;2024-01-10T02:36:18;25.80;;;8.40;;
77322;SDS011;66384;51.052;9.850;2024-01-10T02:38:55;22.40;;;9.10;;
77322;SDS011;66384;51.052;9.850;2024-01-10T02:41:31;22.70;;;8.30;;
77322;SDS011;66384;51.052;9.850;2024-01-10T02:44:07;29.60;;;8.40;;
77322;SDS011;66384;51.052;9.850;2024-01-10T02:46:45;24.30;;;8.50;;
77322;SDS011;66384;51.052;9.850;2024-01-10T02:49:21;25.40;;;8.30;;
77322;SDS011;66384;51.052;9.850;2024-01-10T02:51:57;24.70;;;8.50;;
77322;SDS011;66384;51.052;9.850;2024-01-10T02:54:34;20.10;;;9.50;;
77322;SDS011;66384;51.052;9.850;2024-01-10T02:57:10;21.00;;;7.20;;
77322;SDS011;66384;51.052;9.850;2024-01-10T02:59:46;32.70;;;9.10;;
77322;SDS011;66384;51.052;9.850;2024-01-10T03:02:23;28.70;;;10.80;;
77322;SDS011;66384;51.052;9.850;2024-01-10T03:04:59;26.30;;;9.10;;
77322;SDS011;66384;51.052;9.850;2024-01-10T03:07:36;17.00;;;5.60;;
77322;SDS011;66384;51.052;9.850;2024-01-10T03:10:12;24.10;;;8.70;;
77322;SDS011;66384;51.052;9.850;2024-01-10T03:12:49;21.10;;;9.60;;
77322;SDS011;66384;51.052;9.850;2024-01-10T03:15:25;25.50;;;8.20;;
77322;SDS011;66384;51.052;9.850;2024-01-10T03:18:01;28.50;;;10.50;;
77322;SDS011;66384;51.052;9.850;2024-01-10T03:20:38;28.50;;;9.60;;
77322;SDS011;66384;51.052;9.850;2024-01-10T03:23:14;25.00;;;8.30;;
77322;SDS011;66384;51.052;9.850;2024-01-10T03:25:50;23.90;;;8.20;;
77322;SDS011;66384;51.052;9.850;2024-01-10T03:28:27;27.90;;;7.40;;
77322;SDS011;66384;51.052;9.850;2024-01-10T03:31:03;17.10;;;6.50;;
77322;SDS011;66384;51.052;9.850;2024-01-10T03:33:39;27.80;;;9.70;;
77322;SDS011;66384;51.052;9.850;2024-01-10T03:36:17;22.50;;;7.90;;
77322;SDS011;66384;51.052;9.850;2024-01-10T03:38:53;26.10;;;9.60;;
77322;SDS011;66384;51.052;9.850;2024-01-10T03:41:30;25.50;;;9.10;;
77322;SDS011;66384;51.052;9.850;2024-01-10T03:44:06;26.10;;;8.50;;
77322;SDS011;66384;51.052;9.850;2024-01-10T03:46:43;29.00;;;8.50;;
77322;SDS011;66384;51.052;9.850;2024-01-10T03:49:19;37.70;;;13.80;;
77322;SDS011;66384;51.052;9.850;2024-01-10T03:51:55;28.80;;;8.50;;
77322;SDS011;66384;51.052;9.850;2024-01-10T03:54:32;27.70;;;9.50;;
77322;SDS011;66384;51.052;9.850;2024-01-10T03:57:09;32.50;;;10.80;;
77322;SDS011;66384;51.052;9.850;2024-01-10T03:59:45;27.60;;;12.00;;
77322;SDS011;66384;51.052;9.850;2024-01-10T04:02:21;26.70;;;9.80;;
77322;SDS011;66384;51.052;9.850;2024-01-10T04:04:58;26.10;;;8.80;;
77322;SDS011;66384;51.052;9.850;2024-01-10T04:07:36;27.70;;;9.60;;
77322;SDS011;66384;51.052;9.850;2024-01-10T04:10:13;20.70;;;8.50;;
77322;SDS011;66384;51.052;9.850;2024-01-10T04:12:49;35.80;;;12.80;;
77322;SDS011;66384;51.052;9.850;2024-01-10T04:15:26;30.00;;;9.60;;
77322;SDS011;66384;51.052;9.850;2024-01-10T04:18:02;32.20;;;10.20;;
77322;SDS011;66384;51.052;9.850;2024-01-10T04:20:40;25.00;;;8.10;;
77322;SDS011;66384;51.052;9.850;2024-01-10T04:23:17;22.30;;;8.20;;
77322;SDS011;66384;51.052;9.850;2024-01-10T04:25:54;33.60;;;9.30;;
77322;SDS011;66384;51.052;9.850;2024-01-10T04:28:30;24.70;;;8.50;;
77322;SDS011;66384;51.052;9.850;2024-01-10T04:31:09;26.20;;;8.50;;
77322;SDS011;66384;51.052;9.850;2024-01-10T04:33:46;24.70;;;7.50;;
77322;SDS011;66384;51.052;9.850;2024-01-10T04:36:22;23.50;;;8.10;;
77322;SDS011;66384;51.052;9.850;2024-01-10T04:38:59;24.60;;;8.30;;
77322;SDS011;66384;51.052;9.850;2024-01-10T04:41:35;20.90;;;7.70;;
77322;SDS011;66384;51.052;9.850;2024-01-10T04:44:11;26.70;;;9.00;;
77322;SDS011;66384;51.052;9.850;2024-01-10T04:46:48;18.80;;;6.80;;
77322;SDS011;66384;51.052;9.850;2024-01-10T04:49:24;27.10;;;9.80;;
77322;SDS011;66384;51.052;9.850;2024-01-10T04:52:00;28.60;;;10.00;;
77322;SDS011;66384;51.052;9.850;2024-01-10T04:54:37;21.70;;;7.60;;
77322;SDS011;66384;51.052;9.850;2024-01-10T04:57:13;32.10;;;8.80;;
77322;SDS011;66384;51.052;9.850;2024-01-10T04:59:50;31.20;;;10.30;;
77322;SDS011;66384;51.052;9.850;2024-01-10T05:02:26;21.10;;;7.70;;
77322;SDS011;66384;51.052;9.850;2024-01-10T05:05:02;26.70;;;8.60;;
77322;SDS011;66384;51.052;9.850;2024-01-10T05:07:40;28.90;;;10.30;;
77322;SDS011;66384;51.052;9.850;2024-01-10T05:10:16;33.50;;;10.50;;
77322;SDS011;66384;51.052;9.850;2024-01-10T05:12:52;26.60;;;9.40;;
77322;SDS011;66384;51.052;9.850;2024-01-10T05:15:29;25.40;;;10.00;;
77322;SDS011;66384;51.052;9.850;2024-01-10T05:18:06;37.60;;;11.80;;
77322;SDS011;66384;51.052;9.850;2024-01-10T05:20:42;24.30;;;8.80;;
77322;SDS011;66384;51.052;9.850;2024-01-10T05:23:19;29.30;;;9.60;;
77322;SDS011;66384;51.052;9.850;2024-01-10T05:25:55;31.10;;;9.90;;
77322;SDS011;66384;51.052;9.850;2024-01-10T05:28:32;30.00;;;9.70;;
77322;SDS011;66384;51.052;9.850;2024-01-10T05:31:09;28.30;;;10.20;;
77322;SDS011;66384;51.052;9.850;2024-01-10T05:33:46;23.00;;;9.80;;
77322;SDS011;66384;51.052;9.850;2024-01-10T05:36:24;30.80;;;10.80;;
77322;SDS011;66384;51.052;9.850;2024-01-10T05:39:00;23.90;;;9.40;;
77322;SDS011;66384;51.052;9.850;2024-01-10T05:41:36;35.80;;;14.60;;
77322;SDS011;66384;51.052;9.850;2024-01-10T05:44:16;22.10;;;8.80;;
77322;SDS011;66384;51.052;9.850;2024-01-10T05:46:52;16.80;;;6.80;;
77322;SDS011;66384;51.052;9.850;2024-01-10T05:49:30;27.40;;;8.50;;
77322;SDS011;66384;51.052;9.850;2024-01-10T05:52:06;27.10;;;10.30;;
77322;SDS011;66384;51.052;9.850;2024-01-10T05:54:43;31.80;;;10.00;;
77322;SDS011;66384;51.052;9.850;2024-01-10T05:57:19;26.20;;;8.10;;
77322;SDS011;66384;51.052;9.850;2024-01-10T05:59:56;29.70;;;8.80;;
77322;SDS011;66384;51.052;9.850;2024-01-10T06:02:33;30.20;;;9.60;;
77322;SDS011;66384;51.052;9.850;2024-01-10T06:05:10;31.40;;;9.60;;
77322;SDS011;66384;51.052;9.850;2024-01-10T06:07:47;27.40;;;11.00;;
77322;SDS011;66384;51.052;9.850;2024-01-10T06:10:23;28.50;;;10.50;;
77322;SDS011;66384;51.052;9.850;2024-01-10T06:13:03;32.00;;;10.90;;
77322;SDS011;66384;51.052;9.850;2024-01-10T06:15:39;40.60;;;13.10;;
77322;SDS011;66384;51.052;9.850;2024-01-10T06:18:16;33.60;;;11.00;;
77322;SDS011;66384;51.052;9.850;2024-01-10T06:20:52;27.60;;;10.10;;
77322;SDS011;66384;51.052;9.850;2024-01-10T06:23:28;27.20;;;11.00;;
77322;SDS011;66384;51.052;9.850;2024-01-10T06:26:05;24.00;;;9.90;;
77322;SDS011;66384;51.052;9.850;2024-01-10T06:28:42;31.30;;;11.20;;
77322;SDS011;66384;51.052;9.850;2024-01-10T06:31:18;23.80;;;10.10;;
77322;SDS011;66384;51.052;9.850;2024-01-10T06:33:55;23.40;;;8.40;;
77322;SDS011;66384;51.052;9.850;2024-01-10T06:36:31;24.70;;;10.30;;
77322;SDS011;66384;51.052;9.850;2024-01-10T06:39:09;32.50;;;14.50;;
77322;SDS011;66384;51.052;9.850;2024-01-10T06:41:46;35.90;;;16.30;;
77322;SDS011;66384;51.052;9.850;2024-01-10T06:44:23;28.30;;;11.90;;
77322;SDS011;66384;51.052;9.850;2024-01-10T06:46:59;32.10;;;13.10;;
77322;SDS011;66384;51.052;9.850;2024-01-10T06:49:36;35.00;;;14.40;;
77322;SDS011;66384;51.052;9.850;2024-01-10T06:52:12;23.80;;;9.10;;
77322;SDS011;66384;51.052;9.850;2024-01-10T06:54:49;22.60;;;8.10;;
77322;SDS011;66384;51.052;9.850;2024-01-10T06:57:25;24.70;;;7.40;;
77322;SDS011;66384;51.052;9.850;2024-01-10T07:00:01;29.90;;;8.80;;
77322;SDS011;66384;51.052;9.850;2024-01-10T07:02:41;26.50;;;9.80;;
77322;SDS011;66384;51.052;9.850;2024-01-10T07:05:19;29.30;;;11.10;;
77322;SDS011;66384;51.052;9.850;2024-01-10T07:07:56;29.90;;;9.80;;
77322;SDS011;66384;51.052;9.850;2024-01-10T07:10:33;27.90;;;11.40;;
77322;SDS011;66384;51.052;9.850;2024-01-10T07:13:10;43.10;;;15.40;;
77322;SDS011;66384;51.052;9.850;2024-01-10T07:15:46;23.40;;;9.10;;
77322;SDS011;66384;51.052;9.850;2024-01-10T07:18:23;29.20;;;10.90;;
77322;SDS011;66384;51.052;9.850;2024-01-10T07:20:59;23.90;;;9.80;;
77322;SDS011;66384;51.052;9.850;2024-01-10T07:23:36;46.30;;;15.70;;
77322;SDS011;66384;51.052;9.850;2024-01-10T07:28:48;26.40;;;8.40;;
77322;SDS011;66384;51.052;9.850;2024-01-10T07:31:25;24.60;;;8.20;;
77322;SDS011;66384;51.052;9.850;2024-01-10T07:34:02;37.10;;;13.90;;
77322;SDS011;66384;51.052;9.850;2024-01-10T07:36:43;42.90;;;15.20;;
77322;SDS011;66384;51.052;9.850;2024-01-10T07:39:19;53.50;;;15.30;;
77322;SDS011;66384;51.052;9.850;2024-01-10T07:41:56;35.60;;;14.70;;
77322;SDS011;66384;51.052;9.850;2024-01-10T07:44:33;35.70;;;12.80;;
77322;SDS011;66384;51.052;9.850;2024-01-10T07:47:09;36.20;;;12.50;;
77322;SDS011;66384;51.052;9.850;2024-01-10T07:49:45;33.60;;;14.70;;
77322;SDS011;66384;51.052;9.850;2024-01-10T07:52:22;36.90;;;12.70;;
77322;SDS011;66384;51.052;9.850;2024-01-10T07:54:58;38.40;;;12.30;;
77322;SDS011;66384;51.052;9.850;2024-01-10T07:57:35;38.20;;;12.60;;
77322;SDS011;66384;51.052;9.850;2024-01-10T08:00:13;30.30;;;11.30;;
77322;SDS011;66384;51.052;9.850;2024-01-10T08:02:51;33.90;;;12.70;;
77322;SDS011;66384;51.052;9.850;2024-01-10T08:05:29;31.90;;;11.80;;
77322;SDS011;66384;51.052;9.850;2024-01-10T08:08:06;23.30;;;8.90;;
77322;SDS011;66384;51.052;9.850;2024-01-10T08:10:43;30.20;;;9.40;;
77322;SDS011;66384;51.052;9.850;2024-01-10T08:13:20;27.40;;;11.10;;
77322;SDS011;66384;51.052;9.850;2024-01-10T08:15:57;29.70;;;10.10;;
77322;SDS011;66384;51.052;9.850;2024-01-10T08:18:34;48.10;;;15.30;;
77322;SDS011;66384;51.052;9.850;2024-01-10T08:21:11;54.00;;;14.20;;
77322;SDS011;66384;51.052;9.850;2024-01-10T08:23:48;93.80;;;18.70;;
77322;SDS011;66384;51.052;9.850;2024-01-10T08:26:24;52.70;;;13.90;;
77322;SDS011;66384;51.052;9.850;2024-01-10T08:29:01;70.80;;;18.30;;
77322;SDS011;66384;51.052;9.850;2024-01-10T08:31:37;53.40;;;15.30;;
77322;SDS011;66384;51.052;9.850;2024-01-10T08:34:14;62.00;;;14.90;;
77322;SDS011;66384;51.052;9.850;2024-01-10T08:36:51;56.00;;;14.50;;
77322;SDS011;66384;51.052;9.850;2024-01-10T08:39:27;42.80;;;14.40;;
77322;SDS011;66384;51.052;9.850;2024-01-10T08:42:04;45.10;;;13.50;;
77322;SDS011;66384;51.052;9.850;2024-01-10T08:44:40;49.60;;;16.60;;
77322;SDS011;66384;51.052;9.850;2024-01-10T08:47:16;44.00;;;13.60;;
77322;SDS011;66384;51.052;9.850;2024-01-10T08:49:53;37.60;;;13.00;;
77322;SDS011;66384;51.052;9.850;2024-01-10T08:52:30;31.90;;;12.20;;
77322;SDS011;66384;51.052;9.850;2024-01-10T08:55:08;28.70;;;11.00;;
77322;SDS011;66384;51.052;9.850;2024-01-10T08:57:45;31.40;;;12.70;;
77322;SDS011;66384;51.052;9.850;2024-01-10T09:00:21;30.80;;;12.00;;
77322;SDS011;66384;51.052;9.850;2024-01-10T09:03:00;38.80;;;14.40;;
77322;SDS011;66384;51.052;9.850;2024-01-10T09:05:38;27.80;;;10.60;;
77322;SDS011;66384;51.052;9.850;2024-01-10T09:08:31;40.20;;;14.00;;
77322;SDS011;66384;51.052;9.850;2024-01-10T09:11:07;31.90;;;11.00;;
77322;SDS011;66384;51.052;9.850;2024-01-10T09:13:44;34.20;;;12.10;;
77322;SDS011;66384;51.052;9.850;2024-01-10T09:16:21;25.70;;;10.60;;
77322;SDS011;66384;51.052;9.850;2024-01-10T09:18:57;42.80;;;12.60;;
77322;SDS011;66384;51.052;9.850;2024-01-10T09:21:35;42.60;;;12.60;;
77322;SDS011;66384;51.052;9.850;2024-01-10T09:24:12;39.70;;;13.20;;
77322;SDS011;66384;51.052;9.850;2024-01-10T09:27:00;39.90;;;14.20;;
77322;SDS011;66384;51.052;9.850;2024-01-10T09:29:38;36.50;;;12.90;;
77322;SDS011;66384;51.052;9.850;2024-01-10T09:32:14;41.30;;;16.40;;
77322;SDS011;66384;51.052;9.850;2024-01-10T09:34:51;28.40;;;11.90;;
77322;SDS011;66384;51.052;9.850;2024-01-10T09:37:28;34.10;;;11.40;;
77322;SDS011;66384;51.052;9.850;2024-01-10T09:40:06;41.30;;;14.30;;
77322;SDS011;66384;51.052;9.850;2024-01-10T09:42:47;27.00;;;10.10;;
77322;SDS011;66384;51.052;9.850;2024-01-10T09:47:59;46.00;;;15.40;;
77322;SDS011;66384;51.052;9.850;2024-01-10T09:50:36;26.80;;;11.80;;
77322;SDS011;66384;51.052;9.850;2024-01-10T09:53:14;33.80;;;12.70;;
77322;SDS011;66384;51.052;9.850;2024-01-10T09:55:56;28.10;;;11.30;;
77322;SDS011;66384;51.052;9.850;2024-01-10T09:58:32;26.80;;;11.10;;
77322;SDS011;66384;51.052;9.850;2024-01-10T10:03:43;26.00;;;9.90;;
77322;SDS011;66384;51.052;9.850;2024-01-10T10:06:23;35.20;;;12.90;;
77322;SDS011;66384;51.052;9.850;2024-01-10T10:09:00;33.20;;;11.30;;
77322;SDS011;66384;51.052;9.850;2024-01-10T10:11:36;30.40;;;11.60;;
77322;SDS011;66384;51.052;9.850;2024-01-10T10:14:18;29.70;;;10.70;;
77322;SDS011;66384;51.052;9.850;2024-01-10T10:16:56;34.00;;;13.00;;
77322;SDS011;66384;51.052;9.850;2024-01-10T10:19:50;28.90;;;11.60;;
77322;SDS011;66384;51.052;9.850;2024-01-10T10:22:36;26.80;;;11.30;;
77322;SDS011;66384;51.052;9.850;2024-01-10T10:25:12;43.80;;;13.90;;
77322;SDS011;66384;51.052;9.850;2024-01-10T10:27:53;36.50;;;12.70;;
77322;SDS011;66384;51.052;9.850;2024-01-10T10:30:30;49.40;;;16.00;;
77322;SDS011;66384;51.052;9.850;2024-01-10T10:33:07;32.00;;;10.90;;
77322;SDS011;66384;51.052;9.850;2024-01-10T10:35:45;33.80;;;11.40;;
77322;SDS011;66384;51.052;9.850;2024-01-10T10:38:24;35.60;;;11.90;;
77322;SDS011;66384;51.052;9.850;2024-01-10T10:43:35;33.80;;;12.00;;
77322;SDS011;66384;51.052;9.850;2024-01-10T10:46:13;37.10;;;12.10;;
77322;SDS011;66384;51.052;9.850;2024-01-10T10:48:53;35.80;;;10.90;;
77322;SDS011;66384;51.052;9.850;2024-01-10T10:51:34;33.10;;;13.00;;
77322;SDS011;66384;51.052;9.850;2024-01-10T10:54:13;32.50;;;11.50;;
77322;SDS011;66384;51.052;9.850;2024-01-10T10:59:25;44.20;;;16.90;;
77322;SDS011;66384;51.052;9.850;2024-01-10T11:04:37;42.60;;;14.70;;
77322;SDS011;66384;51.052;9.850;2024-01-10T11:07:17;38.20;;;13.10;;
77322;SDS011;66384;51.052;9.850;2024-01-10T11:09:54;27.70;;;9.70;;
77322;SDS011;66384;51.052;9.850;2024-01-10T11:12:37;34.60;;;13.70;;
77322;SDS011;66384;51.052;9.850;2024-01-10T11:15:39;28.20;;;10.80;;
77322;SDS011;66384;51.052;9.850;2024-01-10T11:18:44;33.80;;;12.50;;
77322;SDS011;66384;51.052;9.850;2024-01-10T11:21:37;41.60;;;13.60;;
77322;SDS011;66384;51.052;9.850;2024-01-10T11:24:27;26.10;;;10.20;;
77322;SDS011;66384;51.052;9.850;2024-01-10T11:27:13;29.60;;;11.20;;
77322;SDS011;66384;51.052;9.850;2024-01-10T11:29:49;27.90;;;11.50;;
77322;SDS011;66384;51.052;9.850;2024-01-10T11:32:27;29.00;;;10.40;;
77322;SDS011;66384;51.052;9.850;2024-01-10T11:35:10;23.70;;;10.80;;
77322;SDS011;66384;51.052;9.850;2024-01-10T11:37:52;32.30;;;11.60;;
77322;SDS011;66384;51.052;9.850;2024-01-10T11:43:30;25.40;;;10.70;;
77322;SDS011;66384;51.052;9.850;2024-01-10T11:46:07;28.90;;;11.30;;
77322;SDS011;66384;51.052;9.850;2024-01-10T11:48:45;23.60;;;10.00;;
77322;SDS011;66384;51.052;9.850;2024-01-10T11:51:25;23.10;;;9.60;;
77322;SDS011;66384;51.052;9.850;2024-01-10T11:54:03;23.70;;;10.40;;
77322;SDS011;66384;51.052;9.850;2024-01-10T11:56:40;29.10;;;10.70;;
77322;SDS011;66384;51.052;9.850;2024-01-10T12:01:51;33.50;;;12.70;;
77322;SDS011;66384;51.052;9.850;2024-01-10T12:04:28;31.30;;;11.90;;
77322;SDS011;66384;51.052;9.850;2024-01-10T12:07:17;35.90;;;13.00;;
77322;SDS011;66384;51.052;9.850;2024-01-10T12:09:54;35.50;;;14.10;;
77322;SDS011;66384;51.052;9.850;2024-01-10T12:15:06;24.50;;;10.00;;
77322;SDS011;66384;51.052;9.850;2024-01-10T12:17:42;40.70;;;15.00;;
77322;SDS011;66384;51.052;9.850;2024-01-10T12:20:19;28.40;;;10.60;;
77322;SDS011;66384;51.052;9.850;2024-01-10T12:22:55;28.70;;;10.90;;
77322;SDS011;66384;51.052;9.850;2024-01-10T12:25:34;28.90;;;10.70;;
77322;SDS011;66384;51.052;9.850;2024-01-10T12:28:11;25.40;;;10.80;;
77322;SDS011;66384;51.052;9.850;2024-01-10T12:30:52;29.00;;;10.10;;
77322;SDS011;66384;51.052;9.850;2024-01-10T12:33:29;23.90;;;10.30;;
77322;SDS011;66384;51.052;9.850;2024-01-10T12:36:08;30.60;;;12.20;;
77322;SDS011;66384;51.052;9.850;2024-01-10T12:38:45;23.70;;;10.00;;
77322;SDS011;66384;51.052;9.850;2024-01-10T12:41:22;24.50;;;10.60;;
77322;SDS011;66384;51.052;9.850;2024-01-10T12:43:59;24.20;;;9.90;;
77322;SDS011;66384;51.052;9.850;2024-01-10T12:46:47;26.30;;;10.30;;
77322;SDS011;66384;51.052;9.850;2024-01-10T12:49:26;17.90;;;9.20;;
77322;SDS011;66384;51.052;9.850;2024-01-10T12:52:02;23.40;;;10.00;;
77322;SDS011;66384;51.052;9.850;2024-01-10T12:54:44;24.70;;;10.60;;
77322;SDS011;66384;51.052;9.850;2024-01-10T12:57:22;24.30;;;9.80;;
77322;SDS011;66384;51.052;9.850;2024-01-10T12:59:58;21.70;;;8.10;;
77322;SDS011;66384;51.052;9.850;2024-01-10T13:02:39;26.60;;;11.40;;
77322;SDS011;66384;51.052;9.850;2024-01-10T13:05:17;24.10;;;9.70;;
77322;SDS011;66384;51.052;9.850;2024-01-10T13:07:54;24.30;;;10.00;;
77322;SDS011;66384;51.052;9.850;2024-01-10T13:10:32;18.40;;;9.60;;
77322;SDS011;66384;51.052;9.850;2024-01-10T13:13:08;23.00;;;10.10;;
77322;SDS011;66384;51.052;9.850;2024-01-10T13:15:45;24.30;;;10.90;;
77322;SDS011;66384;51.052;9.850;2024-01-10T13:18:23;23.30;;;10.30;;
77322;SDS011;66384;51.052;9.850;2024-01-10T13:21:00;29.90;;;12.10;;
77322;SDS011;66384;51.052;9.850;2024-01-10T13:23:37;27.40;;;12.50;;
77322;SDS011;66384;51.052;9.850;2024-01-10T13:26:13;29.40;;;11.20;;
77322;SDS011;66384;51.052;9.850;2024-01-10T13:28:50;26.90;;;12.00;;
77322;SDS011;66384;51.052;9.850;2024-01-10T13:31:27;27.90;;;10.70;;
77322;SDS011;66384;51.052;9.850;2024-01-10T13:34:04;22.80;;;10.20;;
77322;SDS011;66384;51.052;9.850;2024-01-10T13:36:42;31.80;;;11.30;;
77322;SDS011;66384;51.052;9.850;2024-01-10T13:39:19;30.50;;;11.80;;
77322;SDS011;66384;51.052;9.850;2024-01-10T13:41:55;21.30;;;10.70;;
77322;SDS011;66384;51.052;9.850;2024-01-10T13:44:32;24.60;;;9.50;;
77322;SDS011;66384;51.052;9.850;2024-01-10T13:47:09;22.60;;;10.60;;
77322;SDS011;66384;51.052;9.850;2024-01-10T13:49:46;24.30;;;10.00;;
77322;SDS011;66384;51.052;9.850;2024-01-10T13:52:23;28.00;;;12.50;;
77322;SDS011;66384;51.052;9.850;2024-01-10T13:55:00;25.40;;;10.80;;
77322;SDS011;66384;51.052;9.850;2024-01-10T13:57:37;28.40;;;11.10;;
77322;SDS011;66384;51.052;9.850;2024-01-10T14:02:49;25.10;;;10.10;;
77322;SDS011;66384;51.052;9.850;2024-01-10T14:05:30;26.50;;;12.30;;
77322;SDS011;66384;51.052;9.850;2024-01-10T14:08:07;22.20;;;10.70;;
77322;SDS011;66384;51.052;9.850;2024-01-10T14:10:44;29.30;;;10.80;;
77322;SDS011;66384;51.052;9.850;2024-01-10T14:13:21;28.30;;;14.00;;
77322;SDS011;66384;51.052;9.850;2024-01-10T14:15:57;26.20;;;12.50;;
77322;SDS011;66384;51.052;9.850;2024-01-10T14:18:34;27.10;;;12.70;;
77322;SDS011;66384;51.052;9.850;2024-01-10T14:21:11;24.10;;;10.60;;
77322;SDS011;66384;51.052;9.850;2024-01-10T14:23:47;22.30;;;10.30;;
77322;SDS011;66384;51.052;9.850;2024-01-10T14:26:24;21.20;;;9.60;;
77322;SDS011;66384;51.052;9.850;2024-01-10T14:29:01;22.10;;;10.80;;
77322;SDS011;66384;51.052;9.850;2024-01-10T14:31:38;23.70;;;10.10;;
77322;SDS011;66384;51.052;9.850;2024-01-10T14:34:19;21.40;;;10.00;;
77322;SDS011;66384;51.052;9.850;2024-01-10T14:36:56;20.50;;;9.40;;
77322;SDS011;66384;51.052;9.850;2024-01-10T14:39:32;26.90;;;11.50;;
77322;SDS011;66384;51.052;9.850;2024-01-10T14:42:11;24.80;;;10.70;;
77322;SDS011;66384;51.052;9.850;2024-01-10T14:44:47;25.40;;;11.40;;
77322;SDS011;66384;51.052;9.850;2024-01-10T14:47:24;28.70;;;10.00;;
77322;SDS011;66384;51.052;9.850;2024-01-10T14:50:00;22.90;;;11.10;;
77322;SDS011;66384;51.052;9.850;2024-01-10T14:52:37;18.50;;;8.40;;
77322;SDS011;66384;51.052;9.850;2024-01-10T14:55:14;16.10;;;8.30;;
77322;SDS011;66384;51.052;9.850;2024-01-10T14:57:51;14.60;;;7.90;;
77322;SDS011;66384;51.052;9.850;2024-01-10T15:00:28;18.20;;;8.80;;
77322;SDS011;66384;51.052;9.850;2024-01-10T15:03:04;18.40;;;8.20;;
77322;SDS011;66384;51.052;9.850;2024-01-10T15:05:55;24.10;;;9.80;;
77322;SDS011;66384;51.052;9.850;2024-01-10T15:08:32;16.60;;;8.00;;
77322;SDS011;66384;51.052;9.850;2024-01-10T15:11:09;19.10;;;8.90;;
77322;SDS011;66384;51.052;9.850;2024-01-10T15:13:46;21.00;;;8.80;;
77322;SDS011;66384;51.052;9.850;2024-01-10T15:16:22;18.20;;;8.00;;
77322;SDS011;66384;51.052;9.850;2024-01-10T15:18:59;17.70;;;8.80;;
77322;SDS011;66384;51.052;9.850;2024-01-10T15:21:36;19.30;;;9.10;;
77322;SDS011;66384;51.052;9.850;2024-01-10T15:24:12;17.70;;;7.40;;
77322;SDS011;66384;51.052;9.850;2024-01-10T15:26:51;19.00;;;9.20;;
77322;SDS011;66384;51.052;9.850;2024-01-10T15:29:32;32.50;;;11.30;;
77322;SDS011;66384;51.052;9.850;2024-01-10T15:32:10;31.80;;;11.00;;
77322;SDS011;66384;51.052;9.850;2024-01-10T15:34:47;23.10;;;8.60;;
77322;SDS011;66384;51.052;9.850;2024-01-10T15:37:23;19.30;;;8.40;;
77322;SDS011;66384;51.052;9.850;2024-01-10T15:40:00;20.50;;;8.70;;
77322;SDS011;66384;51.052;9.850;2024-01-10T15:42:40;17.80;;;8.20;;
77322;SDS011;66384;51.052;9.850;2024-01-10T15:45:17;20.90;;;9.00;;
77322;SDS011;66384;51.052;9.850;2024-01-10T15:47:54;13.80;;;7.00;;
77322;SDS011;66384;51.052;9.850;2024-01-10T15:50:31;19.30;;;7.70;;
77322;SDS011;66384;51.052;9.850;2024-01-10T15:53:07;20.00;;;7.60;;
77322;SDS011;66384;51.052;9.850;2024-01-10T15:55:43;16.30;;;7.80;;